Terminal Aerodrome Forecast
Issued by NWS

Home | Current Version | Previous Version | Text Only | Print | Product List | Glossary On
Versions: 1 2 3 4 5 6 7 8 9 10 11 12 13 14 15
000
FTUS46 KMTR 272344
TAFSNS
TAF
KSNS 272344Z 2800/2824 28011KT P6SM SKC
      TEMPO 2803/2807 BKN009
     FM280700 30005KT P6SM OVC009
     FM281800 29011KT P6SM FEW011=

USA.gov is the U.S. government's official web portal to all federal, state and local government web resources and services.